createdAt,value
2018-08-21T00:02:34.144Z,2.73
2018-08-21T00:05:02.602Z,2.80
2018-08-21T00:07:31.192Z,2.50
2018-08-21T00:09:59.444Z,2.33
2018-08-21T00:12:27.744Z,2.67
2018-08-21T00:15:07.277Z,3.00
2018-08-21T00:17:35.547Z,3.40
2018-08-21T00:20:07.665Z,2.50
2018-08-21T00:22:35.961Z,2.57
2018-08-21T00:25:04.265Z,2.07
2018-08-21T00:27:32.533Z,3.10
2018-08-21T00:30:00.825Z,3.20
2018-08-21T00:32:29.109Z,2.40
2018-08-21T00:34:57.349Z,3.23
2018-08-21T00:37:25.629Z,2.60
2018-08-21T00:39:53.897Z,3.30
2018-08-21T00:42:22.237Z,2.40
2018-08-21T00:44:54.729Z,2.63
2018-08-21T00:47:23.051Z,2.87
2018-08-21T00:49:51.320Z,2.40
2018-08-21T00:52:19.709Z,3.17
2018-08-21T00:54:47.988Z,2.77
2018-08-21T00:57:16.242Z,2.50
2018-08-21T00:59:44.525Z,2.37
2018-08-21T01:02:12.765Z,2.63
2018-08-21T01:04:41.056Z,2.83
2018-08-21T01:07:09.317Z,2.97
2018-08-21T01:09:37.593Z,2.90
2018-08-21T01:12:06.212Z,2.93
2018-08-21T01:14:35.565Z,2.87
2018-08-21T01:17:03.846Z,2.73
2018-08-21T01:19:32.117Z,2.43
2018-08-21T01:22:00.389Z,2.93
2018-08-21T01:24:28.653Z,2.57
2018-08-21T01:26:56.897Z,3.10
2018-08-21T01:29:25.160Z,2.77
2018-08-21T01:31:53.496Z,2.50
2018-08-21T01:34:21.721Z,2.20
2018-08-21T01:36:50.054Z,2.97
2018-08-21T01:39:18.298Z,3.20
2018-08-21T01:41:47.673Z,3.37
2018-08-21T01:44:15.925Z,2.97
2018-08-21T01:46:48.937Z,2.97
2018-08-21T01:49:17.181Z,2.97
2018-08-21T01:51:45.441Z,3.43
2018-08-21T01:54:16.429Z,3.40
2018-08-21T01:56:44.921Z,2.93
2018-08-21T01:59:13.806Z,2.70
2018-08-21T02:01:42.096Z,3.30
2018-08-21T02:04:10.350Z,3.90
2018-08-21T02:06:38.625Z,3.13
2018-08-21T02:09:11.249Z,3.90
2018-08-21T02:11:40.854Z,3.43
2018-08-21T02:14:09.925Z,3.53
2018-08-21T02:16:38.948Z,2.97
2018-08-21T02:19:07.501Z,3.50
2018-08-21T02:21:35.989Z,2.93
2018-08-21T02:24:04.267Z,3.57
2018-08-21T02:26:32.549Z,3.40
2018-08-21T02:29:00.808Z,3.57
2018-08-21T02:31:29.062Z,4.13
2018-08-21T02:33:57.613Z,4.00
2018-08-21T02:36:25.971Z,4.20
2018-08-21T02:38:54.281Z,3.43
2018-08-21T02:41:22.549Z,4.07
2018-08-21T02:43:50.826Z,3.70
2018-08-21T02:46:26.748Z,3.70
2018-08-21T02:48:57.425Z,4.87
2018-08-21T02:51:35.314Z,3.90
2018-08-21T02:54:04.021Z,3.83
2018-08-21T02:56:32.288Z,3.90
2018-08-21T02:59:01.192Z,3.43
2018-08-21T03:01:37.996Z,3.30
2018-08-21T03:04:13.713Z,3.60
2018-08-21T03:06:42.084Z,4.40
2018-08-21T03:09:13.854Z,3.27
2018-08-21T03:11:42.836Z,4.23
2018-08-21T03:14:11.157Z,3.50
2018-08-21T03:16:39.451Z,3.73
2018-08-21T03:19:08.002Z,3.87
2018-08-21T03:21:36.309Z,4.63
2018-08-21T03:24:04.827Z,3.27
2018-08-21T03:26:33.081Z,3.60
2018-08-21T03:29:01.377Z,3.30
2018-08-21T03:31:29.637Z,3.37
2018-08-21T03:33:57.920Z,3.70
2018-08-21T03:36:28.153Z,6.00
2018-08-21T03:38:56.441Z,3.47
2018-08-21T03:41:24.745Z,3.70
2018-08-21T03:43:53.097Z,3.37
2018-08-21T03:46:21.393Z,3.20
2018-08-21T03:48:49.751Z,3.80
2018-08-21T03:51:19.108Z,3.60
2018-08-21T03:53:53.654Z,4.03
2018-08-21T03:56:22.369Z,4.00
2018-08-21T03:58:50.633Z,3.77
2018-08-21T04:01:18.927Z,3.70
2018-08-21T04:03:52.633Z,4.33
2018-08-21T04:06:29.358Z,4.30
2018-08-21T04:08:57.729Z,4.37
2018-08-21T04:11:26.369Z,4.27
2018-08-21T04:13:58.020Z,3.20
2018-08-21T04:16:26.350Z,3.43
2018-08-21T04:18:55.637Z,3.10
2018-08-21T04:21:28.153Z,3.30
2018-08-21T04:23:56.793Z,3.23
2018-08-21T04:26:26.409Z,3.73
2018-08-21T04:28:55.708Z,3.10
2018-08-21T04:31:24.003Z,3.70
2018-08-21T04:33:55.919Z,3.73
2018-08-21T04:36:24.178Z,3.50
2018-08-21T04:38:53.532Z,3.47
2018-08-21T04:41:21.836Z,3.80
2018-08-21T04:43:50.129Z,3.90
2018-08-21T04:46:19.409Z,3.47
2018-08-21T04:48:48.209Z,3.23
2018-08-21T04:51:17.993Z,3.33
2018-08-21T04:53:46.282Z,3.50
2018-08-21T04:56:14.537Z,2.60
2018-08-21T04:58:44.548Z,2.67
2018-08-21T05:01:12.846Z,3.17
2018-08-21T05:03:41.173Z,2.53
2018-08-21T05:06:09.486Z,2.27
2018-08-21T05:08:37.766Z,2.80
2018-08-21T05:11:10.648Z,2.20
2018-08-21T05:13:38.977Z,2.00
2018-08-21T05:16:07.281Z,2.37
2018-08-21T05:18:35.697Z,2.13
2018-08-21T05:21:04.241Z,1.70
2018-08-21T05:23:32.787Z,1.70
2018-08-21T05:26:02.321Z,1.77
2018-08-21T05:28:32.295Z,2.00
2018-08-21T05:31:06.525Z,1.90
2018-08-21T05:33:34.811Z,2.07
2018-08-21T05:36:05.061Z,2.27
2018-08-21T05:38:34.744Z,2.40
2018-08-21T05:41:05.409Z,1.77
2018-08-21T05:43:35.151Z,1.60
2018-08-21T05:46:04.420Z,3.00
2018-08-21T05:48:32.801Z,1.60
2018-08-21T05:51:01.313Z,2.10
2018-08-21T05:53:30.629Z,1.97
2018-08-21T05:55:59.579Z,2.40
2018-08-21T05:58:28.232Z,2.03
2018-08-21T06:00:56.645Z,1.93
2018-08-21T06:03:24.937Z,1.80
2018-08-21T06:05:53.229Z,1.73
2018-08-21T06:08:22.593Z,1.83
2018-08-21T06:10:50.852Z,1.13
2018-08-21T06:13:19.169Z,1.63
2018-08-21T06:15:48.017Z,1.63
2018-08-21T06:18:22.346Z,1.80
2018-08-21T06:20:55.549Z,1.30
2018-08-21T06:23:25.532Z,1.73
2018-08-21T06:25:53.757Z,2.70
2018-08-21T06:28:25.210Z,1.37
2018-08-21T06:30:53.493Z,1.63
2018-08-21T06:33:21.805Z,2.00
2018-08-21T06:35:50.325Z,1.40
2018-08-21T06:38:18.845Z,1.40
2018-08-21T06:40:47.390Z,2.23
2018-08-21T06:43:16.410Z,1.47
2018-08-21T06:45:44.710Z,1.70
2018-08-21T06:48:14.922Z,1.63
2018-08-21T06:50:44.797Z,1.47
2018-08-21T06:53:13.613Z,1.30
2018-08-21T06:55:42.070Z,1.50
2018-08-21T06:58:11.596Z,1.60
2018-08-21T07:00:41.033Z,3.63
2018-08-21T07:03:10.494Z,4.00
2018-08-21T07:05:39.877Z,3.93
2018-08-21T07:08:09.779Z,5.03
2018-08-21T07:10:38.120Z,2.73
2018-08-21T07:13:06.509Z,2.33
2018-08-21T07:15:34.842Z,1.37
2018-08-21T07:18:04.250Z,1.90
2018-08-21T07:20:34.281Z,1.83
2018-08-21T07:23:02.597Z,1.93
2018-08-21T07:25:31.057Z,1.30
2018-08-21T07:27:59.337Z,1.70
2018-08-21T07:30:35.251Z,1.73
2018-08-21T07:33:03.529Z,2.03
2018-08-21T07:35:31.879Z,1.27
2018-08-21T07:38:00.125Z,1.37
2018-08-21T07:40:28.527Z,1.37
2018-08-21T07:42:56.796Z,1.33
2018-08-21T07:45:25.395Z,1.60
2018-08-21T07:47:53.690Z,3.80
2018-08-21T07:50:22.007Z,1.50
2018-08-21T07:52:55.649Z,1.90
2018-08-21T07:55:24.172Z,1.10
2018-08-21T07:57:53.657Z,1.47
2018-08-21T08:00:22.975Z,1.33
2018-08-21T08:02:54.713Z,1.00
2018-08-21T08:05:25.361Z,1.50
2018-08-21T08:07:54.467Z,1.37
2018-08-21T08:10:24.586Z,2.07
2018-08-21T08:12:54.906Z,1.93
2018-08-21T08:15:23.237Z,1.20
2018-08-21T08:17:55.552Z,2.23
2018-08-21T08:20:25.033Z,1.40
2018-08-21T08:22:53.647Z,1.30
2018-08-21T08:25:21.929Z,2.10
2018-08-21T08:27:50.217Z,1.63
2018-08-21T08:30:18.979Z,1.10
2018-08-21T08:32:47.972Z,1.40
2018-08-21T08:35:17.245Z,1.77
2018-08-21T08:37:46.878Z,1.67
2018-08-21T08:40:20.433Z,1.40
2018-08-21T08:42:50.916Z,1.43
2018-08-21T08:45:23.535Z,1.60
2018-08-21T08:47:51.922Z,2.30
2018-08-21T08:50:20.177Z,1.37
2018-08-21T08:52:49.673Z,1.37
2018-08-21T08:55:17.954Z,1.77
2018-08-21T08:57:48.389Z,1.33
2018-08-21T09:00:18.295Z,1.30
2018-08-21T09:02:49.665Z,1.50
2018-08-21T09:05:18.279Z,1.70
2018-08-21T09:07:46.602Z,1.10
2018-08-21T09:10:14.878Z,2.17
2018-08-21T09:12:43.188Z,1.50
2018-08-21T09:15:11.593Z,1.57
2018-08-21T09:17:39.999Z,2.07
2018-08-21T09:20:10.409Z,2.13
2018-08-21T09:22:41.252Z,1.40
2018-08-21T09:25:09.557Z,1.93
2018-08-21T09:27:41.211Z,1.97
2018-08-21T09:30:12.750Z,1.57
2018-08-21T09:32:41.019Z,1.53
2018-08-21T09:35:09.318Z,1.87
2018-08-21T09:37:37.581Z,2.40
2018-08-21T09:40:05.923Z,1.43
2018-08-21T09:42:35.285Z,1.70
2018-08-21T09:45:03.614Z,1.43
2018-08-21T09:47:31.919Z,1.30
2018-08-21T09:50:02.309Z,2.60
2018-08-21T09:52:31.482Z,1.57
2018-08-21T09:55:04.918Z,1.57
2018-08-21T09:58:57.595Z,1.37
2018-08-21T10:01:31.057Z,2.13
2018-08-21T10:04:04.701Z,1.50
2018-08-21T10:06:33.068Z,1.77
2018-08-21T10:09:01.295Z,2.93
2018-08-21T10:11:30.034Z,2.20
2018-08-21T10:14:00.399Z,1.80
2018-08-21T10:16:28.711Z,2.00
2018-08-21T10:18:57.281Z,2.20
2018-08-21T10:21:27.716Z,1.73
2018-08-21T10:23:59.188Z,1.67
2018-08-21T10:26:37.617Z,2.03
2018-08-21T10:29:05.945Z,2.20
2018-08-21T10:31:36.565Z,1.50
2018-08-21T10:34:05.859Z,1.13
2018-08-21T10:36:34.545Z,1.13
2018-08-21T10:39:02.915Z,1.57
2018-08-21T10:41:31.174Z,1.87
2018-08-21T10:44:01.375Z,1.70
2018-08-21T10:46:29.664Z,1.60
2018-08-21T10:48:58.016Z,1.60
2018-08-21T10:51:26.274Z,1.50
2018-08-21T10:53:54.556Z,1.80
2018-08-21T10:56:22.962Z,1.40
2018-08-21T10:58:51.356Z,1.83
2018-08-21T11:01:19.689Z,1.83
2018-08-21T11:03:50.262Z,1.30
2018-08-21T11:06:18.550Z,1.20
2018-08-21T11:08:47.490Z,1.63
2018-08-21T11:11:15.773Z,1.30
2018-08-21T11:14:00.758Z,1.13
2018-08-21T11:16:30.405Z,1.20
2018-08-21T11:18:59.404Z,1.73
2018-08-21T11:21:28.024Z,1.60
2018-08-21T11:23:56.220Z,1.37
2018-08-21T11:26:24.534Z,1.27
2018-08-21T11:28:53.435Z,1.67
2018-08-21T11:31:21.796Z,1.53
2018-08-21T11:33:50.277Z,1.30
2018-08-21T11:36:19.214Z,1.00
2018-08-21T11:38:47.506Z,1.33
2018-08-21T11:41:15.831Z,1.13
2018-08-21T11:43:44.165Z,1.30
2018-08-21T11:46:12.474Z,1.27
2018-08-21T11:48:40.758Z,1.57
2018-08-21T11:51:09.921Z,1.20
2018-08-21T11:53:38.202Z,1.10
2018-08-21T11:56:06.501Z,1.30
2018-08-21T11:58:34.766Z,1.27
2018-08-21T12:01:03.090Z,2.00
2018-08-21T12:03:31.488Z,1.50
2018-08-21T12:05:59.713Z,1.10
2018-08-21T12:08:28.057Z,1.40
2018-08-21T12:10:56.360Z,1.30
2018-08-21T12:13:24.933Z,1.20
2018-08-21T12:15:53.226Z,1.40
2018-08-21T12:18:21.517Z,1.30
2018-08-21T12:20:49.778Z,1.20
2018-08-21T12:23:18.073Z,1.80
2018-08-21T12:25:46.329Z,1.50
2018-08-21T12:28:14.701Z,1.30
2018-08-21T12:30:42.975Z,1.80
2018-08-21T12:33:11.291Z,1.77
2018-08-21T12:35:39.581Z,1.33
2018-08-21T12:38:07.901Z,1.70
2018-08-21T12:40:36.565Z,2.00
2018-08-21T12:43:04.869Z,1.47
2018-08-21T12:45:33.157Z,1.67
2018-08-21T12:48:01.909Z,1.87
2018-08-21T12:50:30.373Z,1.70
2018-08-21T12:52:58.685Z,1.60
2018-08-21T12:55:26.993Z,1.67
2018-08-21T12:57:55.289Z,1.60
2018-08-21T13:00:23.542Z,1.90
2018-08-21T13:02:51.913Z,1.60
2018-08-21T13:05:20.181Z,2.10
2018-08-21T13:07:48.469Z,1.40
2018-08-21T13:10:16.777Z,2.27
2018-08-21T13:12:45.112Z,1.70
2018-08-21T13:15:13.397Z,1.50
2018-08-21T13:17:41.677Z,1.40
2018-08-21T13:20:09.965Z,1.50
2018-08-21T13:22:38.257Z,1.80
2018-08-21T13:25:06.590Z,1.50
2018-08-21T13:27:34.872Z,1.13
2018-08-21T13:30:03.270Z,1.87
2018-08-21T13:32:31.583Z,1.17
2018-08-21T13:34:59.897Z,1.17
2018-08-21T13:37:28.181Z,1.13
2018-08-21T13:39:56.665Z,1.00
2018-08-21T13:42:25.409Z,1.37
2018-08-21T13:44:53.921Z,1.60
2018-08-21T13:47:22.185Z,1.47
2018-08-21T13:49:50.562Z,1.53
2018-08-21T13:52:18.929Z,1.27
2018-08-21T13:54:47.237Z,1.50
2018-08-21T13:57:15.517Z,1.43
2018-08-21T13:59:43.872Z,1.10
2018-08-21T14:02:12.178Z,1.37
2018-08-21T14:04:40.481Z,1.70
2018-08-21T14:07:08.786Z,1.50
2018-08-21T14:09:37.196Z,2.00
2018-08-21T14:12:05.485Z,2.17
2018-08-21T14:14:33.773Z,1.40
2018-08-21T14:17:02.134Z,1.60
2018-08-21T14:19:30.404Z,1.83
2018-08-21T14:21:58.713Z,1.53
2018-08-21T14:24:27.013Z,1.23
2018-08-21T14:26:55.299Z,1.87
2018-08-21T14:29:23.601Z,1.30
2018-08-21T14:31:51.893Z,1.10
2018-08-21T14:34:20.186Z,1.47
2018-08-21T14:36:48.540Z,1.30
2018-08-21T14:39:16.885Z,1.03
2018-08-21T14:41:45.181Z,1.37
2018-08-21T14:44:13.445Z,1.40
2018-08-21T14:46:41.765Z,1.27
2018-08-21T14:49:10.041Z,1.53
2018-08-21T14:51:38.398Z,1.33
2018-08-21T14:54:06.654Z,1.40
2018-08-21T14:56:34.949Z,1.20
2018-08-21T14:59:03.260Z,1.70
2018-08-21T15:01:31.654Z,1.53
2018-08-21T15:03:59.973Z,1.50
2018-08-21T15:06:28.505Z,1.33
2018-08-21T15:08:56.842Z,1.83
2018-08-21T15:11:25.185Z,1.10
2018-08-21T15:13:53.818Z,1.27
2018-08-21T15:16:22.125Z,1.10
2018-08-21T15:18:50.575Z,1.97
2018-08-21T15:21:18.928Z,1.30
2018-08-21T15:23:47.241Z,1.30
2018-08-21T15:26:15.521Z,1.23
2018-08-21T15:28:43.863Z,1.47
2018-08-21T15:31:12.177Z,1.13
2018-08-21T15:33:40.550Z,0.90
2018-08-21T15:36:09.389Z,1.03
2018-08-21T15:38:37.689Z,2.67
2018-08-21T15:41:06.034Z,2.03
2018-08-21T15:43:34.510Z,1.50
2018-08-21T15:46:02.822Z,1.10
2018-08-21T15:48:31.135Z,1.03
2018-08-21T15:50:59.432Z,1.17
2018-08-21T15:53:28.193Z,1.10
2018-08-21T15:55:56.753Z,1.27
2018-08-21T15:58:25.356Z,1.37
2018-08-21T16:00:53.589Z,1.87
2018-08-21T16:03:21.905Z,1.80
2018-08-21T16:05:50.170Z,1.60
2018-08-21T16:08:18.548Z,1.00
2018-08-21T16:10:46.778Z,1.00
2018-08-21T16:13:15.048Z,1.03
2018-08-21T16:15:43.336Z,1.40
2018-08-21T16:18:11.709Z,1.30
2018-08-21T16:20:40.009Z,1.43
2018-08-21T16:23:08.287Z,0.60
2018-08-21T16:25:36.581Z,0.87
2018-08-21T16:28:04.869Z,0.80
2018-08-21T16:30:33.172Z,1.40
2018-08-21T16:33:01.466Z,0.90
2018-08-21T16:35:29.757Z,1.10
2018-08-21T16:37:58.067Z,1.20
2018-08-21T16:40:27.636Z,0.93
2018-08-21T16:42:55.723Z,1.10
2018-08-21T16:45:24.025Z,1.50
2018-08-21T16:47:52.301Z,1.43
2018-08-21T16:50:20.667Z,0.93
2018-08-21T16:52:48.954Z,1.30
2018-08-21T16:55:17.272Z,0.70
2018-08-21T16:57:45.569Z,1.00
2018-08-21T17:00:14.953Z,1.10
2018-08-21T17:02:43.237Z,1.10
2018-08-21T17:05:11.521Z,1.10
2018-08-21T17:07:39.773Z,1.00
2018-08-21T17:10:09.306Z,1.00
2018-08-21T17:12:37.810Z,0.90
2018-08-21T17:15:06.685Z,1.10
2018-08-21T17:17:35.113Z,0.87
2018-08-21T17:20:03.429Z,1.20
2018-08-21T17:22:32.172Z,1.40
2018-08-21T17:25:00.537Z,1.47
2018-08-21T17:27:28.834Z,1.77
2018-08-21T17:29:57.103Z,1.57
2018-08-21T17:32:25.397Z,1.50
2018-08-21T17:34:53.690Z,1.40
2018-08-21T17:37:21.977Z,0.80
2018-08-21T17:39:50.241Z,1.20
2018-08-21T17:42:18.532Z,1.07
2018-08-21T17:44:46.823Z,1.70
2018-08-21T17:47:15.109Z,0.80
2018-08-21T17:49:43.372Z,1.30
2018-08-21T17:52:11.683Z,0.93
2018-08-21T17:54:39.945Z,1.00
2018-08-21T17:57:08.236Z,1.70
2018-08-21T17:59:36.523Z,1.40
2018-08-21T18:02:05.988Z,1.97
2018-08-21T18:04:34.317Z,1.80
2018-08-21T18:07:03.674Z,1.40
2018-08-21T18:09:33.689Z,1.00
2018-08-21T18:12:02.027Z,1.20
2018-08-21T18:14:30.364Z,1.70
2018-08-21T18:16:58.664Z,1.30
2018-08-21T18:19:26.931Z,1.53
2018-08-21T18:21:55.229Z,1.60
2018-08-21T18:24:23.521Z,1.50
2018-08-21T18:26:51.788Z,1.70
2018-08-21T18:29:20.345Z,2.00
2018-08-21T18:31:48.620Z,1.03
2018-08-21T18:34:16.901Z,1.77
2018-08-21T18:36:45.210Z,1.30
2018-08-21T18:39:14.097Z,1.23
2018-08-21T18:41:42.363Z,1.20
2018-08-21T18:44:10.641Z,1.40
2018-08-21T18:46:38.901Z,1.40
2018-08-21T18:49:07.193Z,1.53
2018-08-21T18:51:35.636Z,1.40
2018-08-21T18:54:03.885Z,1.00
2018-08-21T18:56:32.161Z,0.90
2018-08-21T18:59:00.558Z,1.10
2018-08-21T19:01:28.809Z,1.20
2018-08-21T19:03:57.264Z,1.20
2018-08-21T19:06:25.468Z,1.10
2018-08-21T19:08:53.963Z,2.90
2018-08-21T19:11:22.293Z,1.70
2018-08-21T19:13:50.568Z,1.30
2018-08-21T19:16:18.853Z,1.10
2018-08-21T19:18:47.129Z,1.00
2018-08-21T19:21:15.417Z,1.30
2018-08-21T19:23:43.783Z,1.47
2018-08-21T19:26:12.068Z,1.70
2018-08-21T19:28:40.349Z,1.40
2018-08-21T19:31:08.643Z,1.53
2018-08-21T19:33:36.905Z,1.30
2018-08-21T19:36:05.213Z,2.00
2018-08-21T19:38:33.479Z,1.40
2018-08-21T19:41:02.129Z,1.33
2018-08-21T19:43:30.773Z,1.67
2018-08-21T19:45:59.079Z,1.90
2018-08-21T19:48:27.397Z,1.70
2018-08-21T19:50:55.667Z,1.20
2018-08-21T19:53:23.969Z,2.13
2018-08-21T19:55:52.237Z,1.27
2018-08-21T19:58:20.583Z,1.23
2018-08-21T20:00:48.814Z,1.83
2018-08-21T20:03:17.245Z,1.40
2018-08-21T20:05:45.590Z,1.40
2018-08-21T20:08:13.892Z,1.60
2018-08-21T20:10:42.246Z,1.80
2018-08-21T20:13:10.536Z,2.30
2018-08-21T20:15:38.805Z,2.40
2018-08-21T20:18:07.125Z,2.83
2018-08-21T20:20:35.393Z,2.13
2018-08-21T20:23:03.761Z,2.33
2018-08-21T20:25:32.016Z,2.00
2018-08-21T20:28:00.293Z,2.30
2018-08-21T20:30:28.593Z,1.60
2018-08-21T20:32:56.966Z,2.50
2018-08-21T20:35:25.277Z,2.30
2018-08-21T20:37:53.559Z,1.93
2018-08-21T20:40:26.215Z,2.00
2018-08-21T20:42:54.502Z,2.20
2018-08-21T20:45:22.842Z,1.97
2018-08-21T20:47:51.208Z,2.00
2018-08-21T20:50:19.509Z,2.43
2018-08-21T20:52:47.889Z,2.10
2018-08-21T20:55:16.260Z,1.70
2018-08-21T20:57:46.741Z,1.70
2018-08-21T21:00:15.141Z,1.87
2018-08-21T21:02:43.516Z,1.80
2018-08-21T21:05:11.785Z,1.73
2018-08-21T21:07:41.121Z,1.90
2018-08-21T21:10:09.412Z,1.27
2018-08-21T21:12:47.043Z,1.70
2018-08-21T21:15:27.361Z,2.00
2018-08-21T21:18:06.997Z,1.67
2018-08-21T21:20:47.577Z,2.20
2018-08-21T21:23:18.833Z,1.97
2018-08-21T21:25:47.161Z,1.80
2018-08-21T21:28:16.613Z,1.90
2018-08-21T21:30:45.172Z,1.67
2018-08-21T21:33:13.997Z,1.77
2018-08-21T21:35:42.410Z,1.57
2018-08-21T21:38:10.946Z,1.80
2018-08-21T21:40:39.358Z,1.53
2018-08-21T21:43:07.660Z,1.67
2018-08-21T21:45:36.409Z,1.60
2018-08-21T21:48:05.591Z,1.47
2018-08-21T21:50:34.051Z,1.90
2018-08-21T21:53:03.557Z,1.63
2018-08-21T21:55:31.907Z,1.90
2018-08-21T21:58:00.203Z,2.37
2018-08-21T22:00:29.397Z,1.43
2018-08-21T22:02:57.844Z,1.50
2018-08-21T22:05:26.916Z,2.30
2018-08-21T22:07:55.217Z,2.27
2018-08-21T22:10:23.828Z,2.60
2018-08-21T22:12:52.229Z,1.80
2018-08-21T22:15:20.558Z,2.00
2018-08-21T22:17:48.934Z,1.70
2018-08-21T22:20:17.229Z,2.70
2018-08-21T22:22:45.498Z,2.03
2018-08-21T22:25:13.893Z,2.07
2018-08-21T22:27:42.177Z,1.80
2018-08-21T22:30:11.249Z,2.10
2018-08-21T22:32:40.561Z,1.90
2018-08-21T22:35:08.925Z,1.70
2018-08-21T22:37:37.210Z,1.97
2018-08-21T22:40:05.554Z,1.50
2018-08-21T22:42:33.965Z,1.90
2018-08-21T22:45:02.310Z,1.87
2018-08-21T22:47:30.613Z,1.80
2018-08-21T22:49:58.882Z,1.97
2018-08-21T22:52:27.165Z,1.60
2018-08-21T22:54:55.625Z,1.90
2018-08-21T22:57:23.933Z,1.90
2018-08-21T22:59:52.199Z,2.07
2018-08-21T23:02:20.485Z,1.63
2018-08-21T23:04:50.789Z,1.40
2018-08-21T23:07:19.181Z,1.60
2018-08-21T23:09:47.534Z,1.33
2018-08-21T23:12:15.835Z,2.33
2018-08-21T23:14:44.151Z,2.10
2018-08-21T23:17:12.511Z,1.80
2018-08-21T23:19:40.826Z,1.70
2018-08-21T23:22:09.128Z,1.90
2018-08-21T23:24:37.425Z,1.70
2018-08-21T23:27:06.629Z,1.53
2018-08-21T23:29:34.923Z,1.50
2018-08-21T23:32:03.254Z,1.60
2018-08-21T23:34:31.557Z,1.70
2018-08-21T23:36:59.818Z,1.87
2018-08-21T23:39:28.495Z,1.40
2018-08-21T23:41:57.420Z,1.80
2018-08-21T23:44:25.796Z,1.47
2018-08-21T23:46:54.069Z,1.60
2018-08-21T23:49:22.377Z,1.47
2018-08-21T23:51:50.653Z,1.70
2018-08-21T23:54:18.965Z,1.50
2018-08-21T23:56:47.251Z,1.30
2018-08-21T23:59:15.577Z,1.70
